Strona główna
METAR-TAF:

METAR-TAF

Lotnisko :

Baza lotnicza Alcantarilla

Murcja, Hiszpania

Szerokość geograficzna: 37-57N, Długość geograficzna: 001-14W, wysokość: 75 m

Aktualna obserwacja pogody

Raport powstał 39 minut temu, godzina 11:00 UTC
Wiatr 1 kt z kierunków zmiennych
Temperatura 15°C
Wilgotność 77%
Ciśnienie 1032 hPa
Widzialność 10 km lub więcej
Mało chmury na wysokości 800 ft
Rozproszone chmury na wysokości 2200 ft
Przerywane chmury na wysokości 4500 ft

METAR: LERI 191100Z VRB01KT 9999 FEW008 SCT022 BKN045 15/11 Q1032 NOSIG

czas: 12:39 (11:39 UTC)

Prognoza

Raport powstał 3 godziny i 39 minut temu, godzina 08:00 UTC
Prognoza ważna od 19 godzina 09 UTC do 19 godzina 18 UTC
Wiatr 5 kt od wschodnio-północny wschód
Widzialność 10 km lub więcej
Mało chmury na wysokości 1000 ft
Przerywane chmury na wysokości 1800 ft
Prawdopodobieństwo 30% :
Przejściowo
od 19 godzina 09 UTC do 19 godzina 11 UTC
Przerywane chmury na wysokości 1000 ft

TAF: LERI 190800Z 1909/1918 06005KT 9999 FEW010 BKN018 PROB30 TEMPO 1909/1911 BKN010

Obserwacja i prognoza pogody dla ponad 4000 lotnisk (raport METAR i TAF).

Dostępne stacje oznaczono żółtymi i czerwonymi punktami na mapie.

Najedź kursorem aby zobaczyć nazwę stacji.

Kliknij aby zobaczyć obserwacje i prognozy pogody.

Aby zmienić mapę: kliknij na zielony przycisk z czarnym krzyżykiem, aby powiększyć; na zielony przycisk z myślnikiem, aby pomniejszyć; na zielone strzałki, aby przejść do map sąsiednich.


METAR-TAF: